Time;durP1;ratioP1;P1;durP2;ratioP2;P2;SDS_P1;SDS_P2;PMS_P1;PMS_P2;Temp;Humidity;BMP_temperature;BMP_pressure;BME280_temperature;BME280_humidity;BME280_pressure;Samples;Min_cycle;Max_cycle;Signal;HPM_P1;HPM_P2
2022/07/06 00:01:03;;;;;;;53.30;49.67;;;17.10;77.30;;;;;;5017627;28;20201;-61
2022/07/06 00:03:28;;;;;;;54.90;50.57;;;17.10;78.10;;;;;;5024155;28;20646;-59
2022/07/06 00:05:54;;;;;;;85.00;79.57;;;17.00;79.10;;;;;;5009730;28;20670;-61
2022/07/06 00:08:19;;;;;;;37.60;34.43;;;17.00;80.40;;;;;;5025207;28;20609;-61
2022/07/06 00:10:45;;;;;;;24.60;18.53;;;16.90;81.30;;;;;;5022795;28;20205;-60
2022/07/06 00:13:10;;;;;;;25.63;20.40;;;16.90;82.40;;;;;;5031091;28;20192;-60
2022/07/06 00:15:36;;;;;;;24.33;14.73;;;16.80;83.40;;;;;;5018680;28;20201;-60
2022/07/06 00:18:04;;;;;;;32.07;26.40;;;16.80;84.40;;;;;;5027771;28;20215;-60
2022/07/06 00:20:29;;;;;;;34.57;23.87;;;16.80;85.40;;;;;;5018687;28;20210;-63
2022/07/06 00:22:55;;;;;;;37.23;30.57;;;16.80;86.50;;;;;;5030845;28;20197;-62
2022/07/06 00:25:20;;;;;;;40.07;36.83;;;16.70;88.20;;;;;;5029004;28;20674;-61
2022/07/06 00:27:46;;;;;;;38.67;35.30;;;16.70;89.70;;;;;;5028846;28;20189;-60
2022/07/06 00:30:12;;;;;;;32.70;27.10;;;16.60;90.10;;;;;;5020781;28;20664;-60
2022/07/06 00:32:37;;;;;;;36.63;32.30;;;16.60;90.80;;;;;;5028824;28;20196;-61
2022/07/06 00:35:04;;;;;;;37.87;34.23;;;16.50;91.40;;;;;;5022214;28;20296;-60
2022/07/06 00:37:30;;;;;;;26.73;22.87;;;16.50;92.20;;;;;;5023925;28;20219;-69
2022/07/06 00:39:55;;;;;;;30.77;27.57;;;16.50;92.60;;;;;;5029214;28;20200;-69
2022/07/06 00:42:21;;;;;;;33.70;28.23;;;16.50;93.00;;;;;;5022971;28;20260;-61
2022/07/06 00:44:46;;;;;;;42.40;38.60;;;16.50;93.10;;;;;;5024242;28;20198;-60
2022/07/06 00:47:11;;;;;;;28.70;19.50;;;16.50;93.30;;;;;;5018375;28;20198;-60
2022/07/06 00:52:21;;;;;;;33.87;26.90;;;16.60;93.70;;;;;;5021053;28;20191;-60
2022/07/06 00:54:47;;;;;;;85.97;80.60;;;16.60;94.10;;;;;;5029811;28;20205;-61
2022/07/06 00:57:13;;;;;;;94.50;88.57;;;16.70;94.30;;;;;;5020652;28;20271;-60
2022/07/06 00:59:38;;;;;;;81.80;76.73;;;16.60;94.60;;;;;;5025276;28;20223;-61
2022/07/06 01:02:04;;;;;;;64.10;59.47;;;16.60;95.00;;;;;;5025033;28;20681;-61
2022/07/06 01:04:30;;;;;;;123.73;112.60;;;16.60;95.30;;;;;;5029001;28;20196;-61
2022/07/06 01:06:56;;;;;;;86.37;80.90;;;16.70;95.70;;;;;;5021960;28;20212;-62
2022/07/06 01:09:22;;;;;;;186.47;171.37;;;16.60;96.00;;;;;;5029561;28;20198;-62
2022/07/06 01:11:48;;;;;;;338.47;321.63;;;16.60;96.50;;;;;;5021065;28;20180;-61
2022/07/06 01:14:15;;;;;;;58.07;42.47;;;16.60;97.20;;;;;;5026245;28;20287;-61
2022/07/06 01:16:43;;;;;;;37.53;34.20;;;16.50;97.80;;;;;;5026586;28;20275;-60
2022/07/06 01:19:09;;;;;;;31.27;22.83;;;16.50;98.50;;;;;;5021580;28;20311;-62
2022/07/06 01:21:37;;;;;;;41.13;26.97;;;16.40;99.20;;;;;;5010608;28;20209;-62
2022/07/06 01:24:03;;;;;;;28.20;20.37;;;16.40;99.70;;;;;;5027303;28;20551;-61
2022/07/06 01:26:29;;;;;;;34.43;25.97;;;16.30;99.90;;;;;;5016429;28;20378;-61
2022/07/06 01:28:55;;;;;;;29.03;25.90;;;16.30;99.90;;;;;;5027924;28;20276;-59
2022/07/06 01:31:24;;;;;;;25.87;17.00;;;16.30;99.90;;;;;;5022388;28;20206;-63
2022/07/06 01:33:52;;;;;;;31.47;16.37;;;16.30;99.90;;;;;;5026386;28;20204;-60
2022/07/06 01:36:18;;;;;;;20.20;11.37;;;16.30;99.90;;;;;;5018376;28;20220;-61
2022/07/06 01:38:49;;;;;;;15.73;6.10;;;16.30;99.90;;;;;;5024601;28;20206;-61
2022/07/06 01:41:15;;;;;;;10.47;4.30;;;16.30;99.90;;;;;;5013395;28;20209;-61
2022/07/06 01:43:41;;;;;;;12.20;4.70;;;16.30;99.90;;;;;;5027296;28;20275;-60
2022/07/06 01:46:07;;;;;;;16.07;4.97;;;16.30;99.90;;;;;;5018049;28;20295;-61
2022/07/06 01:48:32;;;;;;;15.97;5.83;;;16.40;99.90;;;;;;5027847;28;20617;-62
2022/07/06 01:50:58;;;;;;;12.73;4.77;;;16.50;99.90;;;;;;5016313;28;20266;-60
2022/07/06 01:53:23;;;;;;;17.70;6.07;;;16.40;99.90;;;;;;5027721;28;20192;-61
2022/07/06 01:55:49;;;;;;;11.83;4.70;;;16.50;99.90;;;;;;5019857;28;20721;-61
2022/07/06 01:58:15;;;;;;;14.73;5.50;;;16.50;99.90;;;;;;5027529;28;20211;-61
2022/07/06 02:00:41;;;;;;;15.37;5.20;;;16.50;99.90;;;;;;5013726;28;20235;-61
2022/07/06 02:03:07;;;;;;;13.83;4.90;;;16.60;99.90;;;;;;5024362;28;20191;-60
2022/07/06 02:05:32;;;;;;;11.73;4.80;;;16.70;99.90;;;;;;5014414;28;20974;-61
2022/07/06 02:07:58;;;;;;;11.00;4.10;;;16.80;99.90;;;;;;5026571;28;20199;-60
2022/07/06 02:10:23;;;;;;;12.40;4.93;;;16.90;99.90;;;;;;5020244;28;20664;-61
2022/07/06 02:12:49;;;;;;;14.00;5.13;;;16.90;99.90;;;;;;5026800;28;20199;-62
2022/07/06 02:15:14;;;;;;;17.53;5.97;;;16.90;99.90;;;;;;5022415;28;20679;-61
2022/07/06 02:17:40;;;;;;;15.30;5.47;;;16.80;99.90;;;;;;5026264;28;20312;-61
2022/07/06 02:20:06;;;;;;;7.80;4.13;;;16.70;99.90;;;;;;5024850;28;20284;-62
2022/07/06 02:22:31;;;;;;;8.43;4.20;;;16.30;99.90;;;;;;5017497;28;20264;-60
2022/07/06 02:24:57;;;;;;;16.07;12.73;;;15.90;99.90;;;;;;5024456;28;20286;-61
2022/07/06 02:27:22;;;;;;;14.50;5.10;;;15.70;99.90;;;;;;5011025;28;20243;-61
2022/07/06 02:29:48;;;;;;;29.17;25.93;;;15.50;99.90;;;;;;5020089;28;20197;-61
2022/07/06 02:32:13;;;;;;;15.73;5.90;;;15.30;99.90;;;;;;5011011;28;20184;-61
2022/07/06 02:34:39;;;;;;;15.23;5.97;;;15.10;99.90;;;;;;5007496;28;20203;-61
2022/07/06 02:37:04;;;;;;;18.47;6.23;;;15.10;99.90;;;;;;5009275;28;20582;-61
2022/07/06 02:39:30;;;;;;;14.03;5.60;;;15.00;99.90;;;;;;5026174;28;20191;-61
2022/07/06 02:41:56;;;;;;;22.10;8.53;;;15.10;99.90;;;;;;5013632;28;20199;-61
2022/07/06 02:44:21;;;;;;;14.70;5.43;;;15.10;99.90;;;;;;5026894;28;20646;-60
2022/07/06 02:46:46;;;;;;;14.43;5.33;;;15.20;99.90;;;;;;5021251;28;20200;-60
2022/07/06 02:49:12;;;;;;;15.40;6.10;;;15.30;99.90;;;;;;5026201;28;20222;-61
2022/07/06 02:51:37;;;;;;;16.97;6.13;;;15.30;99.90;;;;;;5011118;28;20215;-60
2022/07/06 02:54:03;;;;;;;18.07;6.70;;;15.30;99.90;;;;;;5025131;28;20193;-62
2022/07/06 02:56:29;;;;;;;11.90;4.83;;;15.20;99.90;;;;;;5012583;28;20598;-61
2022/07/06 02:58:54;;;;;;;19.60;7.63;;;15.10;99.90;;;;;;5021335;28;20804;-60
2022/07/06 03:01:20;;;;;;;18.83;6.90;;;15.10;99.90;;;;;;5012685;28;20207;-61
2022/07/06 03:03:45;;;;;;;14.37;5.10;;;15.10;99.90;;;;;;5026140;28;20647;-60
2022/07/06 03:06:11;;;;;;;19.10;6.57;;;15.10;99.90;;;;;;5024466;28;20196;-61
2022/07/06 03:08:36;;;;;;;14.83;5.97;;;15.20;99.90;;;;;;5026482;28;20187;-60
2022/07/06 03:11:02;;;;;;;21.37;6.73;;;15.20;99.90;;;;;;5024303;28;20211;-62
2022/07/06 03:13:28;;;;;;;18.10;6.83;;;15.20;99.90;;;;;;5025029;28;20231;-61
2022/07/06 03:15:54;;;;;;;16.93;6.27;;;15.30;99.90;;;;;;5023740;28;20686;-63
2022/07/06 03:18:19;;;;;;;15.10;5.87;;;15.30;99.90;;;;;;5016744;28;20265;-61
2022/07/06 03:20:45;;;;;;;21.17;6.67;;;15.50;99.90;;;;;;5023906;28;20211;-61
2022/07/06 03:23:10;;;;;;;17.93;6.67;;;15.50;99.90;;;;;;5015865;28;20734;-61
2022/07/06 03:25:36;;;;;;;19.77;5.97;;;15.50;99.90;;;;;;5018660;28;20255;-61
2022/07/06 03:28:01;;;;;;;14.50;5.43;;;15.50;99.90;;;;;;5016553;28;20290;-61
2022/07/06 03:30:27;;;;;;;16.13;6.47;;;15.40;99.90;;;;;;5023514;28;20200;-61
2022/07/06 03:32:52;;;;;;;18.67;6.30;;;15.40;99.90;;;;;;5013809;28;20622;-61
2022/07/06 03:35:18;;;;;;;18.07;6.57;;;15.50;99.90;;;;;;5023732;28;20207;-60
2022/07/06 03:37:43;;;;;;;17.80;6.93;;;15.30;99.90;;;;;;5014803;28;20228;-61
2022/07/06 03:40:10;;;;;;;56.73;18.50;;;15.30;99.90;;;;;;5022618;28;20243;-62
2022/07/06 03:42:36;;;;;;;18.43;6.20;;;15.20;99.90;;;;;;5020083;28;20188;-60
2022/07/06 03:45:02;;;;;;;52.53;18.87;;;15.10;99.90;;;;;;5022818;28;20191;-61
2022/07/06 03:47:27;;;;;;;14.93;6.03;;;15.10;99.90;;;;;;5011347;28;20694;-61
2022/07/06 03:49:53;;;;;;;16.90;6.50;;;15.10;99.90;;;;;;5025707;28;20222;-60
2022/07/06 03:52:18;;;;;;;17.90;6.37;;;15.10;99.90;;;;;;5015624;28;20212;-60
2022/07/06 03:54:44;;;;;;;15.67;6.43;;;15.10;99.90;;;;;;5024920;28;20191;-61
2022/07/06 03:57:11;;;;;;;18.03;7.00;;;15.10;99.90;;;;;;5008168;28;20274;-60
2022/07/06 03:59:36;;;;;;;14.87;5.70;;;15.10;99.90;;;;;;5025313;28;20199;-61
2022/07/06 04:02:02;;;;;;;20.37;7.30;;;15.40;99.90;;;;;;5006692;28;20295;-60
2022/07/06 04:04:27;;;;;;;19.47;7.07;;;15.50;99.90;;;;;;5023511;28;20196;-61
2022/07/06 04:06:53;;;;;;;19.00;7.17;;;15.60;99.90;;;;;;5021165;28;20187;-62
2022/07/06 04:09:18;;;;;;;18.03;6.17;;;15.60;99.90;;;;;;5024174;28;20195;-61
2022/07/06 04:11:44;;;;;;;17.33;5.80;;;15.60;99.90;;;;;;5012752;28;20543;-61
2022/07/06 04:14:09;;;;;;;13.63;5.13;;;15.80;99.90;;;;;;5025596;28;20195;-61
2022/07/06 04:16:35;;;;;;;16.90;6.37;;;15.90;99.90;;;;;;5018339;28;20203;-62
2022/07/06 04:19:00;;;;;;;14.43;5.60;;;15.90;99.90;;;;;;5022758;28;20207;-61
2022/07/06 04:21:26;;;;;;;18.37;6.70;;;15.80;99.90;;;;;;5011035;28;20200;-61
2022/07/06 04:23:51;;;;;;;10.63;4.43;;;15.80;99.90;;;;;;5024808;28;20257;-62
2022/07/06 04:26:16;;;;;;;13.10;5.37;;;16.00;99.90;;;;;;5012928;28;20283;-60
2022/07/06 04:28:42;;;;;;;17.80;5.73;;;16.00;99.90;;;;;;5024604;28;20210;-61
2022/07/06 04:31:07;;;;;;;19.70;6.73;;;15.90;99.90;;;;;;5022476;28;20204;-62
2022/07/06 04:33:34;;;;;;;19.17;7.33;;;15.90;99.90;;;;;;5024827;28;20615;-60
2022/07/06 04:35:59;;;;;;;23.40;6.87;;;15.80;99.90;;;;;;5023196;28;20664;-61
2022/07/06 04:38:25;;;;;;;19.13;6.60;;;15.80;99.90;;;;;;5024514;28;20249;-61
2022/07/06 04:40:50;;;;;;;18.33;6.70;;;15.80;99.90;;;;;;5015107;28;20200;-61
2022/07/06 04:43:15;;;;;;;19.63;6.50;;;15.80;99.90;;;;;;5017568;28;20212;-63
2022/07/06 04:45:41;;;;;;;15.93;5.67;;;15.80;99.90;;;;;;5022253;28;20919;-63
2022/07/06 04:48:08;;;;;;;21.03;6.80;;;15.90;99.90;;;;;;5015045;28;20190;-61
2022/07/06 04:50:33;;;;;;;20.10;7.30;;;15.90;99.90;;;;;;5022055;28;20200;-60
2022/07/06 04:52:59;;;;;;;20.60;7.40;;;15.90;99.90;;;;;;5010406;28;20188;-61
2022/07/06 04:55:24;;;;;;;15.27;5.27;;;15.80;99.90;;;;;;5023030;28;20281;-61
2022/07/06 04:57:51;;;;;;;14.60;5.53;;;15.70;99.90;;;;;;5009576;28;20652;-62
2022/07/06 05:00:17;;;;;;;14.63;4.73;;;15.80;99.90;;;;;;5027245;28;20199;-60
2022/07/06 05:02:43;;;;;;;17.70;6.50;;;15.80;99.90;;;;;;5022180;28;20181;-61
2022/07/06 05:05:09;;;;;;;53.00;20.37;;;15.90;99.90;;;;;;5025429;28;20246;-60
2022/07/06 05:07:39;;;;;;;18.10;6.47;;;15.90;99.90;;;;;;5018593;28;20191;-60
2022/07/06 05:10:08;;;;;;;55.63;18.40;;;15.90;99.90;;;;;;5025411;28;20283;-61
2022/07/06 05:12:34;;;;;;;29.50;7.87;;;16.00;99.90;;;;;;5008922;28;20183;-59
2022/07/06 05:15:00;;;;;;;37.73;14.53;;;16.00;99.90;;;;;;5025246;28;20200;-59
2022/07/06 05:17:25;;;;;;;23.93;7.50;;;16.00;99.90;;;;;;5012895;28;20281;-60
2022/07/06 05:19:51;;;;;;;25.23;7.37;;;16.00;99.90;;;;;;5024083;28;20192;-58
2022/07/06 05:22:16;;;;;;;22.10;7.27;;;16.00;99.90;;;;;;5018459;28;20242;-59
2022/07/06 05:24:41;;;;;;;25.37;8.40;;;16.00;99.90;;;;;;5027101;28;20192;-60
2022/07/06 05:27:07;;;;;;;19.23;6.77;;;16.20;99.90;;;;;;5014858;28;20427;-61
2022/07/06 05:29:32;;;;;;;20.23;6.57;;;16.20;99.90;;;;;;5028231;28;20223;-61
2022/07/06 05:31:58;;;;;;;16.90;5.97;;;16.30;99.90;;;;;;5012996;28;20958;-60
2022/07/06 05:34:23;;;;;;;22.07;6.97;;;16.40;99.90;;;;;;5023622;28;20194;-60
2022/07/06 05:36:49;;;;;;;18.60;6.30;;;16.50;99.90;;;;;;5011518;28;20205;-61
2022/07/06 05:39:19;;;;;;;19.37;6.17;;;16.40;99.90;;;;;;5028047;28;20199;-60
2022/07/06 05:41:45;;;;;;;16.50;5.50;;;16.40;99.90;;;;;;5014830;28;20204;-61
2022/07/06 05:44:11;;;;;;;13.73;4.97;;;16.50;99.90;;;;;;5027774;28;20666;-59
2022/07/06 05:46:37;;;;;;;21.87;7.70;;;16.50;99.90;;;;;;5012560;28;20210;-60
2022/07/06 05:51:46;;;;;;;21.20;7.30;;;16.50;99.90;;;;;;5002819;28;20266;-60
2022/07/06 05:54:12;;;;;;;21.00;7.13;;;16.50;99.90;;;;;;5027183;28;20242;-59
2022/07/06 05:56:37;;;;;;;20.23;7.03;;;16.60;99.90;;;;;;5014267;28;20576;-61
2022/07/06 05:59:04;;;;;;;24.97;9.73;;;16.70;99.90;;;;;;5027529;28;20227;-61
2022/07/06 06:01:29;;;;;;;21.23;7.70;;;16.70;99.90;;;;;;5013320;28;20586;-61
2022/07/06 06:03:55;;;;;;;21.50;6.27;;;16.80;99.90;;;;;;5020140;28;20236;-60
2022/07/06 06:06:20;;;;;;;14.17;5.03;;;16.90;99.90;;;;;;5013471;28;20196;-61
2022/07/06 06:08:46;;;;;;;14.73;4.30;;;16.90;99.90;;;;;;5027282;28;20257;-60
2022/07/06 06:11:11;;;;;;;20.50;6.80;;;16.90;99.90;;;;;;5021993;28;20598;-60
2022/07/06 06:13:37;;;;;;;18.67;6.23;;;16.90;99.90;;;;;;5025654;28;20203;-63
2022/07/06 06:16:02;;;;;;;15.87;5.47;;;16.60;99.90;;;;;;5015775;28;20295;-61
2022/07/06 06:18:28;;;;;;;22.73;6.97;;;16.70;99.90;;;;;;5026503;28;20234;-61
2022/07/06 06:20:53;;;;;;;18.60;6.37;;;16.90;99.90;;;;;;5025147;28;20195;-60
2022/07/06 06:23:19;;;;;;;16.27;5.97;;;16.90;99.90;;;;;;5027214;28;20191;-61
2022/07/06 06:25:44;;;;;;;14.60;5.43;;;16.90;99.90;;;;;;5018352;28;20595;-60
2022/07/06 06:28:10;;;;;;;19.43;6.27;;;17.00;99.90;;;;;;5022107;28;20184;-60
2022/07/06 06:30:37;;;;;;;16.30;6.27;;;17.00;99.90;;;;;;5024645;28;20299;-60
2022/07/06 06:33:13;;;;;;;14.73;5.33;;;17.00;99.90;;;;;;5017748;28;20189;-60
2022/07/06 06:35:43;;;;;;;16.13;5.77;;;17.10;99.90;;;;;;5024437;28;20267;-60
2022/07/06 06:38:09;;;;;;;16.60;5.40;;;17.20;99.90;;;;;;5014922;28;20214;-61
2022/07/06 06:40:35;;;;;;;15.47;5.27;;;17.30;99.90;;;;;;5025218;28;20227;-60
2022/07/06 06:43:00;;;;;;;17.27;6.40;;;17.30;99.90;;;;;;5013103;28;20189;-60
2022/07/06 06:45:26;;;;;;;8.07;3.20;;;17.30;99.90;;;;;;5024224;28;20259;-60
2022/07/06 06:47:52;;;;;;;8.67;3.90;;;17.40;99.90;;;;;;5018450;28;20552;-60
2022/07/06 06:50:17;;;;;;;8.30;3.63;;;17.40;99.90;;;;;;5023218;28;20413;-61
2022/07/06 06:52:43;;;;;;;12.63;5.73;;;17.60;99.90;;;;;;5015127;28;20275;-60
2022/07/06 06:55:09;;;;;;;32.93;13.53;;;17.80;99.90;;;;;;5022212;28;20775;-61
2022/07/06 06:57:34;;;;;;;19.53;6.90;;;17.90;99.90;;;;;;5016914;28;20219;-61
2022/07/06 07:00:00;;;;;;;36.80;12.07;;;18.10;99.90;;;;;;5014545;28;20573;-61
2022/07/06 07:02:26;;;;;;;17.33;5.60;;;18.00;99.90;;;;;;5022206;28;20178;-60
2022/07/06 07:04:51;;;;;;;19.83;6.03;;;18.10;99.90;;;;;;5025649;28;20190;-60
2022/07/06 07:07:17;;;;;;;19.70;6.10;;;18.30;99.90;;;;;;5009187;28;20213;-60
2022/07/06 07:09:42;;;;;;;19.03;5.70;;;18.30;99.90;;;;;;5026084;28;20233;-61
2022/07/06 07:12:08;;;;;;;21.70;6.60;;;18.60;99.90;;;;;;5013144;28;20206;-61
2022/07/06 07:14:33;;;;;;;24.77;8.20;;;18.60;99.90;;;;;;5026136;28;20612;-63
2022/07/06 07:16:59;;;;;;;18.30;6.67;;;18.70;99.20;;;;;;5012248;28;20213;-62
2022/07/06 07:19:24;;;;;;;21.23;6.33;;;18.50;98.70;;;;;;5025875;28;20190;-64
2022/07/06 07:21:50;;;;;;;13.77;5.50;;;18.50;99.40;;;;;;5008182;28;20221;-63
2022/07/06 07:24:15;;;;;;;18.33;5.87;;;18.50;98.30;;;;;;5026107;28;20228;-63
2022/07/06 07:26:40;;;;;;;23.37;8.37;;;18.50;98.00;;;;;;5012657;28;20198;-63
2022/07/06 07:29:06;;;;;;;20.60;6.37;;;18.50;97.70;;;;;;5026057;28;20244;-63
2022/07/06 07:31:31;;;;;;;21.83;7.23;;;18.40;97.80;;;;;;5011206;28;20288;-61
2022/07/06 07:33:58;;;;;;;12.07;4.57;;;18.30;97.50;;;;;;5025144;28;20271;-60
2022/07/06 07:36:24;;;;;;;17.57;6.43;;;18.40;97.30;;;;;;5011935;28;20253;-62
2022/07/06 07:38:50;;;;;;;18.17;5.67;;;18.60;97.10;;;;;;5025354;28;20269;-62
2022/07/06 07:41:16;;;;;;;19.37;6.63;;;18.70;95.60;;;;;;5024210;28;20208;-61
2022/07/06 07:43:42;;;;;;;15.20;5.27;;;18.60;94.90;;;;;;5025888;28;20283;-61
2022/07/06 07:46:08;;;;;;;15.93;5.20;;;18.70;94.70;;;;;;5022956;28;20544;-61
2022/07/06 07:48:33;;;;;;;19.73;6.13;;;18.80;94.70;;;;;;5025696;28;20217;-62
2022/07/06 07:50:59;;;;;;;13.70;5.30;;;18.90;94.80;;;;;;5023048;28;20268;-61
2022/07/06 07:53:24;;;;;;;16.67;5.60;;;19.00;94.50;;;;;;5020873;28;20198;-62
2022/07/06 07:55:49;;;;;;;19.03;6.33;;;19.30;94.00;;;;;;5020656;28;20820;-61
2022/07/06 07:58:15;;;;;;;18.27;6.50;;;19.30;94.00;;;;;;5024981;28;20234;-61
2022/07/06 08:00:40;;;;;;;10.20;3.90;;;19.40;93.70;;;;;;5022844;28;20201;-61
2022/07/06 08:03:06;;;;;;;14.33;5.20;;;19.50;93.60;;;;;;5006992;28;20945;-61
2022/07/06 08:05:31;;;;;;;15.47;5.30;;;19.50;94.10;;;;;;5022188;28;20232;-61
2022/07/06 08:07:57;;;;;;;15.40;5.17;;;19.60;93.70;;;;;;5021032;28;20221;-61
2022/07/06 08:10:22;;;;;;;14.67;5.33;;;19.60;93.30;;;;;;5023211;28;20201;-63
2022/07/06 08:12:48;;;;;;;17.07;5.57;;;19.60;93.50;;;;;;5013487;28;20191;-62
2022/07/06 08:15:13;;;;;;;61.50;22.23;;;19.30;93.40;;;;;;5020260;28;20198;-63
2022/07/06 08:17:39;;;;;;;18.43;6.03;;;19.20;93.00;;;;;;5013944;28;20202;-62
2022/07/06 08:20:05;;;;;;;50.47;18.00;;;19.20;93.30;;;;;;5014316;28;20186;-63
2022/07/06 08:22:31;;;;;;;19.13;6.53;;;19.40;93.40;;;;;;5024070;28;20183;-62
2022/07/06 08:24:57;;;;;;;12.03;3.90;;;19.50;93.10;;;;;;5023981;28;21070;-64
2022/07/06 08:27:23;;;;;;;18.80;6.27;;;19.50;92.10;;;;;;5014289;28;20211;-62
2022/07/06 08:29:49;;;;;;;12.67;4.40;;;19.80;91.70;;;;;;5021676;28;20198;-62
2022/07/06 08:32:14;;;;;;;17.73;5.53;;;19.80;90.40;;;;;;5013821;28;20712;-62
2022/07/06 08:34:40;;;;;;;15.47;5.57;;;19.60;91.00;;;;;;5028490;28;20657;-62
2022/07/06 08:37:06;;;;;;;13.53;5.23;;;19.50;90.30;;;;;;5010404;28;20252;-62
2022/07/06 08:39:31;;;;;;;10.87;4.17;;;19.70;89.50;;;;;;5027453;28;20343;-62
2022/07/06 08:41:58;;;;;;;10.80;3.93;;;20.10;86.20;;;;;;5022261;28;20230;-62
2022/07/06 08:44:24;;;;;;;9.90;4.23;;;20.20;84.30;;;;;;5028563;28;20370;-62
2022/07/06 08:46:53;;;;;;;13.47;4.50;;;19.90;84.10;;;;;;5011904;28;20207;-62
2022/07/06 08:49:19;;;;;;;12.93;4.93;;;19.90;84.70;;;;;;5028802;28;20294;-61
2022/07/06 08:51:45;;;;;;;14.33;4.43;;;20.10;82.30;;;;;;5012630;28;20200;-61
2022/07/06 08:54:12;;;;;;;12.77;4.33;;;20.20;81.60;;;;;;5025371;28;20284;-61
2022/07/06 08:56:38;;;;;;;12.33;4.77;;;20.30;81.40;;;;;;5012792;28;20237;-61
2022/07/06 08:59:04;;;;;;;14.77;4.70;;;20.10;81.10;;;;;;5022498;28;20211;-61
2022/07/06 09:01:30;;;;;;;14.10;6.27;;;20.10;80.20;;;;;;5019376;28;20304;-61
2022/07/06 09:03:56;;;;;;;13.17;4.97;;;20.40;81.50;;;;;;5028286;28;20197;-61
2022/07/06 09:06:26;;;;;;;11.50;4.43;;;20.50;80.00;;;;;;5015156;28;20311;-61
2022/07/06 09:08:54;;;;;;;11.37;4.40;;;20.50;78.80;;;;;;5019805;28;20200;-61
2022/07/06 09:11:25;;;;;;;13.90;4.53;;;20.40;77.40;;;;;;5015101;28;20212;-63
2022/07/06 09:13:51;;;;;;;8.23;3.27;;;20.20;78.20;;;;;;5023310;28;20196;-61
2022/07/06 09:16:17;;;;;;;14.03;5.17;;;20.10;75.70;;;;;;5015056;28;20255;-61
2022/07/06 09:18:46;;;;;;;9.07;3.33;;;20.40;74.80;;;;;;5027594;28;20926;-61
2022/07/06 09:21:26;;;;;;;16.77;5.70;;;20.00;71.20;;;;;;5018032;28;20202;-61
2022/07/06 09:23:55;;;;;;;11.27;4.00;;;20.20;72.30;;;;;;5032661;28;20640;-61
2022/07/06 09:26:22;;;;;;;16.10;5.77;;;20.00;72.20;;;;;;5013643;28;20608;-62
2022/07/06 09:28:48;;;;;;;10.47;4.20;;;20.10;71.70;;;;;;5024212;28;20203;-71
2022/07/06 09:31:14;;;;;;;15.63;5.47;;;20.30;71.10;;;;;;5015848;28;20229;-71
2022/07/06 09:33:53;;;;;;;15.53;4.70;;;20.30;71.30;;;;;;5024920;28;20217;-63
2022/07/06 09:36:46;;;;;;;11.77;3.93;;;20.30;69.30;;;;;;5010956;28;20367;-61
2022/07/06 09:39:28;;;;;;;15.00;5.00;;;20.20;67.40;;;;;;5010761;28;20219;-61
2022/07/06 09:41:56;;;;;;;14.63;4.93;;;20.30;67.90;;;;;;5007361;28;20455;-60
2022/07/06 09:44:28;;;;;;;11.20;4.27;;;20.60;70.70;;;;;;5027059;28;20195;-61
2022/07/06 09:47:02;;;;;;;9.83;3.70;;;20.60;68.90;;;;;;5026371;28;20199;-63
2022/07/06 09:49:28;;;;;;;15.80;4.70;;;20.70;69.50;;;;;;5014758;28;20202;-63
2022/07/06 09:51:56;;;;;;;11.57;4.30;;;20.60;70.70;;;;;;5016637;28;21029;-62
2022/07/06 09:54:22;;;;;;;16.30;4.53;;;20.70;71.60;;;;;;5027186;28;20226;-62
2022/07/06 09:56:52;;;;;;;12.77;4.63;;;20.80;72.10;;;;;;5015027;28;20249;-61
2022/07/06 09:59:26;;;;;;;11.73;4.40;;;20.90;72.30;;;;;;5027308;28;20264;-62
2022/07/06 10:01:54;;;;;;;12.50;4.20;;;21.00;71.10;;;;;;5006227;28;20245;-62
2022/07/06 10:04:20;;;;;;;11.90;4.17;;;21.00;70.70;;;;;;5027609;28;20996;-61
2022/07/06 10:06:46;;;;;;;15.50;5.20;;;21.00;72.00;;;;;;5011283;28;20241;-61
2022/07/06 10:09:13;;;;;;;14.20;4.97;;;21.20;72.10;;;;;;5026912;28;20261;-61
2022/07/06 10:11:52;;;;;;;11.97;4.60;;;21.50;72.20;;;;;;5013750;28;20215;-61
2022/07/06 10:14:20;;;;;;;13.37;4.90;;;21.40;71.10;;;;;;5013610;28;20222;-63
2022/07/06 10:16:46;;;;;;;13.87;4.43;;;21.20;71.60;;;;;;5017479;28;20214;-63
2022/07/06 10:19:13;;;;;;;16.20;5.37;;;21.00;71.90;;;;;;5026637;28;20206;-63
2022/07/06 10:21:39;;;;;;;12.07;4.60;;;20.70;73.30;;;;;;5010976;28;20203;-62
2022/07/06 10:24:07;;;;;;;15.23;5.43;;;20.70;73.90;;;;;;5020722;28;20196;-62
2022/07/06 10:26:34;;;;;;;17.50;6.10;;;20.60;74.00;;;;;;5013692;28;20681;-62
2022/07/06 10:29:01;;;;;;;12.43;4.63;;;20.50;74.40;;;;;;5026434;28;20618;-62
2022/07/06 10:31:28;;;;;;;9.20;3.67;;;20.50;75.00;;;;;;5012952;28;20673;-62
2022/07/06 10:33:55;;;;;;;19.53;6.97;;;20.80;73.60;;;;;;5026549;28;20195;-62
2022/07/06 10:36:22;;;;;;;8.17;3.30;;;21.00;72.30;;;;;;5013473;28;20258;-61
2022/07/06 10:38:52;;;;;;;11.60;4.30;;;21.30;72.60;;;;;;5021473;28;20218;-63
2022/07/06 10:41:19;;;;;;;11.23;4.33;;;21.70;72.20;;;;;;5024284;28;20215;-63
2022/07/06 10:43:48;;;;;;;15.33;6.23;;;21.60;71.10;;;;;;5026392;28;20806;-62
2022/07/06 10:46:19;;;;;;;14.40;5.20;;;21.40;71.60;;;;;;5024471;28;20249;-63
2022/07/06 10:48:45;;;;;;;11.27;4.57;;;21.20;70.80;;;;;;5026192;28;20428;-64
2022/07/06 10:51:12;;;;;;;11.83;4.53;;;21.00;71.30;;;;;;5024868;28;20215;-63
2022/07/06 10:53:40;;;;;;;19.57;6.37;;;21.10;70.90;;;;;;5020142;28;20203;-63
2022/07/06 10:56:07;;;;;;;13.40;5.17;;;21.30;70.50;;;;;;5023846;28;21072;-64
2022/07/06 10:58:48;;;;;;;12.13;4.57;;;21.80;70.80;;;;;;5026823;28;20211;-63
2022/07/06 11:01:14;;;;;;;17.23;5.50;;;22.50;67.00;;;;;;4996003;28;20239;-64
2022/07/06 11:03:46;;;;;;;14.40;5.43;;;22.50;66.60;;;;;;5015126;28;20410;-63
2022/07/06 11:06:21;;;;;;;13.70;4.83;;;22.80;66.30;;;;;;5024082;28;20282;-62
2022/07/06 11:08:55;;;;;;;10.17;3.97;;;21.70;66.70;;;;;;5010725;28;20509;-62
2022/07/06 11:11:33;;;;;;;18.50;5.60;;;21.40;68.40;;;;;;5013921;28;20219;-63
2022/07/06 11:14:02;;;;;;;12.60;4.50;;;21.10;68.90;;;;;;5005882;28;20187;-63
2022/07/06 11:16:33;;;;;;;18.60;6.97;;;21.10;69.20;;;;;;5019328;28;20299;-62
2022/07/06 11:19:10;;;;;;;13.57;4.73;;;20.80;70.20;;;;;;5006846;28;20226;-64
2022/07/06 11:21:51;;;;;;;15.60;5.27;;;20.50;70.70;;;;;;5012517;28;20231;-62
2022/07/06 11:24:22;;;;;;;12.47;4.60;;;20.80;68.50;;;;;;5026618;28;20476;-62
2022/07/06 11:26:49;;;;;;;16.20;5.83;;;21.20;67.80;;;;;;5009399;28;20385;-62
2022/07/06 11:29:18;;;;;;;14.13;5.20;;;21.40;67.40;;;;;;5025839;28;20205;-62
2022/07/06 11:31:46;;;;;;;18.93;6.33;;;21.80;65.70;;;;;;5009985;28;20210;-62
2022/07/06 11:34:17;;;;;;;16.03;5.57;;;22.00;64.80;;;;;;5018693;28;20200;-62
2022/07/06 11:36:43;;;;;;;18.47;6.60;;;22.10;65.50;;;;;;5016216;28;20207;-62
2022/07/06 11:39:08;;;;;;;10.20;4.13;;;22.40;65.70;;;;;;5026101;28;20550;-62
2022/07/06 11:41:34;;;;;;;12.87;5.00;;;22.70;65.50;;;;;;5012999;28;20223;-62
2022/07/06 11:44:00;;;;;;;9.07;3.50;;;22.20;62.30;;;;;;5026274;28;20285;-64
2022/07/06 11:46:31;;;;;;;12.13;4.50;;;21.80;63.80;;;;;;5012464;28;20196;-62
2022/07/06 11:48:58;;;;;;;14.73;5.67;;;21.60;65.70;;;;;;5016619;28;20291;-62
2022/07/06 11:51:28;;;;;;;10.07;4.00;;;22.60;64.00;;;;;;5011803;28;20573;-62
2022/07/06 11:53:57;;;;;;;11.20;4.33;;;22.90;61.70;;;;;;5020979;28;20196;-63
2022/07/06 11:56:25;;;;;;;11.73;4.10;;;23.20;63.00;;;;;;5012334;28;20224;-63
2022/07/06 11:58:52;;;;;;;14.07;5.10;;;22.70;63.30;;;;;;5025972;28;20222;-62
2022/07/06 12:01:18;;;;;;;10.47;3.73;;;22.60;63.40;;;;;;5012943;28;20290;-64
2022/07/06 12:03:44;;;;;;;12.07;4.30;;;22.30;63.50;;;;;;5025267;28;20591;-63
2022/07/06 12:06:19;;;;;;;9.77;3.53;;;21.60;65.00;;;;;;5022544;28;20211;-63
2022/07/06 12:08:50;;;;;;;14.53;5.60;;;21.10;66.00;;;;;;5022047;28;20244;-62
2022/07/06 12:11:21;;;;;;;13.90;4.73;;;20.90;67.60;;;;;;5012716;28;20810;-62
2022/07/06 12:13:47;;;;;;;14.17;5.10;;;21.20;66.80;;;;;;5024902;28;20278;-62
2022/07/06 12:16:15;;;;;;;15.27;5.50;;;21.30;67.90;;;;;;5023115;28;20471;-62
2022/07/06 12:18:41;;;;;;;13.80;4.73;;;21.70;67.00;;;;;;5025133;28;20738;-62
2022/07/06 12:21:08;;;;;;;12.13;4.23;;;21.90;66.60;;;;;;5022715;28;20302;-62
2022/07/06 12:23:51;;;;;;;15.77;5.43;;;22.20;65.60;;;;;;5015978;28;20195;-63
2022/07/06 12:26:19;;;;;;;18.10;5.77;;;23.30;65.30;;;;;;5010892;28;20216;-62
2022/07/06 12:28:46;;;;;;;11.55;4.15;;;24.40;62.90;;;;;;5025422;28;20211;-63
2022/07/06 12:31:35;;;;;;;14.45;5.38;;;24.90;60.10;;;;;;5020711;28;20682;-62
2022/07/06 12:34:01;;;;;;;9.60;3.20;;;24.20;60.30;;;;;;4998032;28;20512;-63
2022/07/06 12:36:27;;;;;;;16.98;5.95;;;24.30;60.60;;;;;;5003212;28;20216;-63
2022/07/06 12:38:52;;;;;;;19.17;7.07;;;25.00;61.80;;;;;;5025221;28;20210;-64